Data for 11/19/2017

Time Sea-Level Adjusted Pressure Absolute Pressure Temperature Relative Humidity Dew Point   
(mb) (inHg) (mb) (inHg) (C) (F) (%) (C) (F)
00:05 1021 30.15 851 25.13 -5.8 21.6 69 -10.5 13
00:10 1021 30.15 851 25.13 -5.6 21.8 68 -10.7 12.8
00:15 1021 30.15 851 25.13 -5.6 22 70 -10.2 13.6
00:20 1021 30.15 851 25.13 -5.4 22.3 67 -10.7 12.7
00:25 1021 30.15 851 25.13 -5.6 21.9 68 -10.7 12.8
00:30 1021 30.15 851 25.13 -6 21.2 69 -10.8 12.6
00:35 1021 30.15 851 25.13 -6.1 21 69 -10.9 12.4
00:40 1021 30.15 851 25.13 -6.2 20.9 69 -10.9 12.4
00:45 1021 30.15 851 25.13 -6.2 20.9 70 -10.7 12.7
00:50 1021 30.15 850 25.1 -6.2 20.9 70 -10.7 12.7
00:55 1021 30.15 850 25.1 -6 21.3 69 -10.8 12.6
01:00 1021 30.15 850 25.1 -6 21.2 70 -10.7 12.8
01:05 1021 30.15 850 25.1 -5.7 21.7 68 -10.7 12.7
01:10 1021 30.15 850 25.1 -5.8 21.6 68 -10.7 12.7
01:15 1021 30.15 850 25.1 -6.1 21 71 -10.7 12.8
01:20 1021 30.15 850 25.1 -5.5 22.2 66 -10.9 12.4
01:25 1021 30.15 850 25.1 -4.9 23.1 65 -10.6 13
01:30 1021 30.15 850 25.1 -5 22.9 63 -11 12.2
01:35 1021 30.15 850 25.1 -4.5 23.9 60 -11.2 11.9
01:40 1021 30.15 850 25.1 -4.3 24.3 60 -11 12.3
01:45 1021 30.15 850 25.1 -4.6 23.8 61 -11 12.2
01:50 1021 30.15 850 25.1 -4.4 24.1 60 -10.9 12.3
01:55 1021 30.15 850 25.1 -4 24.7 60 -10.7 12.8
02:00 1021 30.15 850 25.1 -3.8 25.1 60 -10.5 13.2
02:05 1021 30.15 850 25.1 -3.9 25 60 -10.5 13.1
02:10 1021 30.15 850 25.1 -3.8 25.2 60 -10.4 13.4
02:15 1021 30.15 850 25.1 -3.9 25 62 -10.3 13.5
02:20 1021 30.15 850 25.1 -4.3 24.3 63 -10.2 13.6
02:25 1021 30.15 850 25.1 -4.5 24 64 -10.3 13.4
02:30 1021 30.15 850 25.1 -4.7 23.5 64 -10.5 13.2
02:35 1021 30.15 850 25.1 -4.9 23.2 65 -10.5 13.1
02:40 1021 30.15 850 25.1 -5.2 22.6 66 -10.6 13
02:45 1021 30.15 850 25.1 -5.6 22 68 -10.6 13
02:50 1021 30.15 850 25.1 -5.7 21.7 68 -10.6 12.8
02:55 1021 30.15 850 25.1 -5.9 21.3 69 -10.7 12.7
03:00 1021 30.15 850 25.1 -5.7 21.8 68 -10.7 12.8
03:05 1021 30.15 850 25.1 -5.6 21.9 68 -10.6 13
03:10 1020 30.12 850 25.1 -5.5 22.1 67 -10.7 12.7
03:15 1020 30.12 850 25.1 -4.9 23.2 65 -10.6 13
03:20 1020 30.12 849 25.07 -4.9 23.3 64 -10.6 12.9
03:25 1020 30.12 849 25.07 -4.9 23.2 63 -11 12.2
03:30 1020 30.12 849 25.07 -5 23.1 63 -10.9 12.3
03:35 1020 30.12 849 25.07 -4.6 23.6 61 -11.1 12.1
03:40 1020 30.12 849 25.07 -4.2 24.4 60 -10.9 12.3
03:45 1020 30.12 849 25.07 -4 24.7 60 -10.7 12.7
03:50 1020 30.12 849 25.07 -4 24.8 60 -10.7 12.8
03:55 1020 30.12 849 25.07 -4.2 24.5 60 -10.9 12.4
04:00 1020 30.12 849 25.07 -4.1 24.7 60 -10.7 12.7
04:05 1020 30.12 849 25.07 -3.9 25 61 -10.4 13.4
04:10 1020 30.12 849 25.07 -4 24.7 61 -10.4 13.2
04:15 1019 30.09 849 25.07 -4.2 24.5 62 -10.4 13.2
04:20 1019 30.09 849 25.07 -4.3 24.2 63 -10.4 13.3
04:25 1019 30.09 849 25.07 -4.8 23.3 64 -10.5 13
04:30 1019 30.09 849 25.07 -4.8 23.4 64 -10.7 12.8
04:35 1019 30.09 849 25.07 -4.9 23.1 65 -10.5 13.2
04:40 1019 30.09 848 25.04 -5.3 22.4 66 -10.8 12.6
04:45 1019 30.09 848 25.04 -5.1 22.9 64 -10.9 12.4
04:50 1019 30.09 848 25.04 -4.6 23.6 61 -11.2 11.9
04:55 1019 30.09 848 25.04 -4.2 24.4 60 -10.8 12.5
05:00 1019 30.09 848 25.04 -4.2 24.5 58 -11.3 11.6
05:05 1019 30.09 848 25.04 -4.3 24.3 59 -11.1 12
05:10 1019 30.09 848 25.04 -4.6 23.7 60 -11.3 11.7
05:15 1019 30.09 848 25.04 -4.7 23.6 60 -11.3 11.7
05:20 1019 30.09 848 25.04 -4.6 23.7 60 -11.2 11.9
05:25 1019 30.09 848 25.04 -4.4 24 61 -10.9 12.4
05:30 1019 30.09 848 25.04 -4.2 24.4 59 -11.1 12
05:35 1019 30.09 848 25.04 -3.6 25.6 58 -10.6 12.9
05:40 1019 30.09 848 25.04 -4.1 24.5 61 -10.7 12.8
05:45 1019 30.09 848 25.04 -4.1 24.6 60 -10.7 12.8
05:50 1019 30.09 848 25.04 -4.7 23.6 62 -10.8 12.5
05:55 1019 30.09 848 25.04 -4.6 23.7 61 -11.1 12
06:00 1019 30.09 848 25.04 -4.2 24.4 58 -11.2 11.8
06:05 1018 30.06 848 25.04 -4.1 24.7 58 -11.2 11.9
06:10 1018 30.06 848 25.04 -4.1 24.6 58 -11.3 11.7
06:15 1018 30.06 848 25.04 -4.2 24.4 58 -11.3 11.6
06:20 1018 30.06 848 25.04 -4.2 24.4 58 -11.3 11.6
06:25 1018 30.06 848 25.04 -4.2 24.4 58 -11.2 11.8
06:30 1018 30.06 848 25.04 -4.4 24.2 59 -11.2 11.8
06:35 1018 30.06 847 25.01 -4.5 23.9 60 -11.1 12
06:40 1018 30.06 847 25.01 -4.4 24.1 59 -11.2 11.8
06:45 1018 30.06 847 25.01 -4.2 24.4 58 -11.2 11.8
06:50 1018 30.06 847 25.01 -4.5 23.9 59 -11.2 11.8
06:55 1018 30.06 847 25.01 -4.6 23.7 60 -11.3 11.6
07:00 1018 30.06 848 25.04 -4.5 23.8 59 -11.3 11.6
07:05 1018 30.06 848 25.04 -4.7 23.5 60 -11.5 11.4
07:10 1018 30.06 848 25.04 -4.5 24 58 -11.6 11.1
07:15 1018 30.06 848 25.04 -4.4 24 58 -11.6 11.2
07:20 1018 30.06 847 25.01 -4 24.8 56 -11.5 11.3
07:25 1018 30.06 847 25.01 -3.6 25.5 58 -10.7 12.8
07:30 1018 30.06 847 25.01 -3.7 25.3 59 -10.6 12.9
07:35 1018 30.06 847 25.01 -3.7 25.4 59 -10.6 12.9
07:40 1018 30.06 847 25.01 -3.9 25 60 -10.5 13
07:45 1018 30.06 847 25.01 -4.6 23.8 62 -10.9 12.5
07:50 1018 30.06 848 25.04 -4.5 23.9 60 -11.1 12.1
07:55 1018 30.06 848 25.04 -4.4 24.1 59 -11.2 11.9
08:00 1018 30.06 848 25.04 -4.2 24.5 57 -11.4 11.5
08:05 1018 30.06 848 25.04 -4.1 24.6 57 -11.5 11.3
08:10 1018 30.06 848 25.04 -3.7 25.3 55 -11.5 11.3
08:15 1018 30.06 848 25.04 -3.5 25.7 55 -11.2 11.9
08:20 1018 30.06 848 25.04 -3.6 25.5 56 -11.1 11.9
08:25 1018 30.06 848 25.04 -3.7 25.3 56 -11.2 11.8
08:30 1018 30.06 848 25.04 -3.9 25 57 -11.2 11.8
08:35 1018 30.06 848 25.04 -3.7 25.3 56 -11.2 11.9
08:40 1018 30.06 848 25.04 -3.5 25.6 55 -11.2 11.8
08:45 1018 30.06 847 25.01 -3.3 26.1 54 -11.2 11.8
08:50 1018 30.06 847 25.01 -2.7 27.1 53 -11 12.2
08:55 1018 30.06 847 25.01 -2.2 28.1 53 -10.4 13.3
09:00 1018 30.06 847 25.01 -2.4 27.7 52 -11.1 12
09:05 1018 30.06 847 25.01 -2.5 27.6 51 -11.2 11.8
09:10 1018 30.06 847 25.01 -2.4 27.7 51 -11.2 11.8
09:15 1018 30.06 847 25.01 -2.1 28.3 49 -11.4 11.4
09:20 1018 30.06 847 25.01 -1.6 29 49 -11 12.2
09:25 1018 30.06 847 25.01 -1.3 29.7 49 -10.8 12.6
09:30 1018 30.06 847 25.01 -1.3 29.6 49 -10.8 12.6
09:35 1018 30.06 847 25.01 -1.4 29.5 50 -10.5 13.2
09:40 1018 30.06 847 25.01 -1.2 29.8 48 -10.9 12.3
09:45 1018 30.06 847 25.01 -1.5 29.3 50 -10.5 13.1
09:50 1018 30.06 847 25.01 -1.7 28.9 53 -10.2 13.7
09:55 1018 30.06 847 25.01 -1.9 28.7 53 -10.2 13.6
10:00 1018 30.06 847 25.01 -1.5 29.4 51 -10.3 13.4
10:05 1018 30.06 847 25.01 -1.3 29.7 50 -10.5 13.2
10:10 1018 30.06 847 25.01 -1.2 29.8 53 -9.6 14.7
10:15 1017 30.03 847 25.01 -1.3 29.7 54 -9.5 15
10:20 1017 30.03 847 25.01 -1.3 29.6 53 -9.6 14.7
10:25 1017 30.03 847 25.01 -1.2 29.9 53 -9.6 14.7
10:30 1017 30.03 847 25.01 -1.1 30.1 51 -10 14.1
10:35 1017 30.03 846 24.98 -0.2 31.7 49 -9.7 14.6
10:40 1017 30.03 846 24.98 0.9 33.7 43 -10.3 13.4
10:45 1017 30.03 846 24.98 1.5 34.7 42 -10.1 13.8
10:50 1017 30.03 846 24.98 1.4 34.5 42 -10.1 13.9
10:55 1017 30.03 846 24.98 1.7 35 41 -10.3 13.5
11:00 1017 30.03 846 24.98 2.1 35.8 40 -10.2 13.6
11:05 1017 30.03 846 24.98 2.5 36.4 37 -10.7 12.8
11:10 1017 30.03 846 24.98 2.7 36.9 38 -10.1 13.8
11:15 1017 30.03 846 24.98 2.8 37 38 -10.2 13.7
11:20 1017 30.03 846 24.98 2.9 37.2 36 -10.8 12.6
11:25 1017 30.03 846 24.98 2.8 37.1 38 -10 13.9
11:30 1017 30.03 846 24.98 2.8 37 36 -10.8 12.5
11:35 1017 30.03 846 24.98 2.7 36.9 34 -11.5 11.2
11:40 1017 30.03 846 24.98 2.5 36.5 39 -10 13.9
11:45 1016 30 846 24.98 2.9 37.3 38 -9.9 14.1
11:50 1016 30 845 24.95 2.8 37 39 -9.7 14.5
11:55 1016 30 845 24.95 2.3 36.1 41 -9.8 14.4
12:00 1016 30 845 24.95 2.7 36.8 39 -10 14
12:05 1016 30 845 24.95 2.7 36.8 39 -10.1 13.9
12:10 1016 30 845 24.95 2.8 37 39 -9.8 14.4
12:15 1016 30 845 24.95 3.1 37.6 37 -10.1 13.9
12:20 1016 30 845 24.95 3.7 38.7 36 -10.1 13.8
12:25 1016 30 845 24.95 4.1 39.4 34 -10.5 13
12:30 1016 30 845 24.95 4 39.2 36 -9.6 14.7
12:35 1016 30 845 24.95 3.8 38.8 35 -10.1 13.7
12:40 1016 30 845 24.95 3.8 38.8 36 -9.8 14.4
12:45 1016 30 845 24.95 4.3 39.7 34 -10.1 13.8
12:50 1016 30 845 24.95 4.5 40 34 -10.1 13.9
12:55 1016 30 845 24.95 4.5 40.2 34 -9.9 14.1
13:00 1016 30 845 24.95 4.8 40.6 33 -10.1 13.7
13:05 1016 30 845 24.95 4.7 40.5 34 -10 14
13:10 1016 30 845 24.95 4.3 39.7 34 -10.1 13.9
13:15 1015 29.97 845 24.95 3.8 38.8 37 -9.6 14.8
13:20 1015 29.97 844 24.92 3.1 37.5 38 -9.8 14.3
13:25 1015 29.97 844 24.92 2.8 37 38 -10 13.9
13:30 1015 29.97 844 24.92 3.8 38.9 35 -10.3 13.5
13:35 1015 29.97 844 24.92 4 39.1 36 -10 14.1
13:40 1015 29.97 844 24.92 4.1 39.3 34 -10.3 13.5
13:45 1015 29.97 844 24.92 4.4 39.9 34 -10.1 13.8
13:50 1015 29.97 844 24.92 4.8 40.7 33 -10.1 13.8
13:55 1015 29.97 844 24.92 5 41 34 -9.6 14.7
14:00 1015 29.97 844 24.92 4.7 40.4 34 -10 14
14:05 1015 29.97 844 24.92 4.8 40.6 34 -9.7 14.6
14:10 1015 29.97 844 24.92 4.3 39.7 36 -9.4 15.1
14:15 1015 29.97 844 24.92 3.7 38.6 38 -9.2 15.4
14:20 1015 29.97 844 24.92 3.8 38.9 36 -9.9 14.1
14:25 1014 29.94 844 24.92 4.3 39.7 36 -9.6 14.7
14:30 1014 29.94 843 24.89 4.2 39.6 35 -10.1 13.8
14:35 1014 29.94 843 24.89 4.6 40.4 33 -10.3 13.4
14:40 1014 29.94 843 24.89 4.6 40.3 33 -10.3 13.4
14:45 1014 29.94 843 24.89 4.3 39.7 35 -9.7 14.5
14:50 1014 29.94 843 24.89 4 39.2 35 -10.2 13.7
14:55 1014 29.94 843 24.89 3.9 39 36 -10 14
15:00 1014 29.94 843 24.89 4 39.2 35 -10.3 13.5
15:05 1014 29.94 843 24.89 3.9 39 34 -10.6 13
15:10 1014 29.94 843 24.89 4 39.2 35 -10.3 13.5
15:15 1014 29.94 843 24.89 4.1 39.4 33 -10.8 12.6
15:20 1013 29.91 843 24.89 4.2 39.5 34 -10.3 13.5
15:25 1013 29.91 843 24.89 4.2 39.5 34 -10.2 13.6
15:30 1013 29.91 843 24.89 3.8 38.9 34 -10.7 12.8
15:35 1013 29.91 843 24.89 3.6 38.4 34 -10.9 12.4
15:40 1013 29.91 842 24.86 3.5 38.3 33 -11.3 11.7
15:45 1013 29.91 842 24.86 3.8 38.9 30 -12.2 10
15:50 1013 29.91 842 24.86 4.2 39.6 30 -12 10.4
15:55 1013 29.91 842 24.86 4.4 39.9 30 -11.9 10.5
16:00 1013 29.91 842 24.86 4.1 39.4 30 -11.8 10.8
16:05 1013 29.91 842 24.86 4.2 39.6 29 -12.2 10
16:10 1013 29.91 842 24.86 4.4 39.9 30 -11.9 10.6
16:15 1013 29.91 842 24.86 4.3 39.7 30 -11.7 10.9
16:20 1013 29.91 842 24.86 3.8 38.9 31 -12 10.4
16:25 1013 29.91 842 24.86 3.7 38.7 30 -12.5 9.4
16:30 1013 29.91 842 24.86 3.7 38.7 30 -12.2 10.1
16:35 1013 29.91 842 24.86 3.5 38.3 34 -11.1 12
16:40 1012 29.88 842 24.86 3.1 37.6 32 -12 10.3
16:45 1013 29.91 842 24.86 3 37.4 32 -12.3 9.8
16:50 1012 29.88 842 24.86 2.9 37.1 31 -12.6 9.3
16:55 1012 29.88 842 24.86 2.9 37.3 32 -12.3 9.9
17:00 1012 29.88 842 24.86 3 37.4 32 -12.1 10.2
17:05 1012 29.88 841 24.83 2.7 36.8 34 -11.8 10.8
17:10 1012 29.88 841 24.83 2 35.6 43 -9.4 15
17:15 1012 29.88 841 24.83 1.8 35.2 39 -10.9 12.4
17:20 1012 29.88 841 24.83 1.9 35.4 38 -11.2 11.9
17:25 1012 29.88 841 24.83 2.2 35.9 34 -12 10.4
17:30 1012 29.88 841 24.83 2.5 36.5 37 -10.7 12.7
17:35 1012 29.88 842 24.86 2.1 35.7 38 -10.7 12.7
17:40 1012 29.88 842 24.86 1.6 34.8 33 -13.2 8.3
17:45 1012 29.88 841 24.83 2.2 35.9 35 -11.7 11
17:50 1012 29.88 841 24.83 2.1 35.7 39 -10.4 13.3
17:55 1012 29.88 841 24.83 1.6 34.9 40 -10.5 13.2
18:00 1012 29.88 841 24.83 1.3 34.3 42 -10.2 13.6
18:05 1012 29.88 841 24.83 1 33.8 42 -10.7 12.8
18:10 1012 29.88 841 24.83 0.9 33.6 40 -11.2 11.8
18:15 1012 29.88 841 24.83 1.2 34.1 38 -11.7 10.9
18:20 1012 29.88 841 24.83 1.4 34.5 38 -11.5 11.4
18:25 1012 29.88 841 24.83 1.2 34.2 38 -11.5 11.3
18:30 1012 29.88 841 24.83 0.9 33.7 40 -11.2 11.8
18:35 1012 29.88 841 24.83 0.7 33.3 37 -12.2 10
18:40 1012 29.88 841 24.83 0.8 33.5 38 -12 10.4
18:45 1012 29.88 841 24.83 1 33.7 37 -12.2 10
18:50 1012 29.88 841 24.83 1.5 34.7 35 -12.2 10
18:55 1012 29.88 841 24.83 2.2 35.9 34 -12 10.3
19:00 1012 29.88 841 24.83 2 35.6 33 -12.8 8.9
19:05 1012 29.88 841 24.83 2.4 36.3 33 -12.2 10.1
19:10 1012 29.88 841 24.83 2.1 35.8 35 -11.9 10.6
19:15 1012 29.88 841 24.83 2.1 35.8 34 -12.3 9.9
19:20 1012 29.88 841 24.83 2.3 36.1 34 -12.1 10.2
19:25 1012 29.88 841 24.83 2.2 36 34 -12.1 10.2
19:30 1011 29.85 841 24.83 2.1 35.8 35 -11.9 10.7
19:35 1011 29.85 841 24.83 2.3 36.2 32 -12.8 9
19:40 1011 29.85 841 24.83 3 37.3 32 -12.2 10.1
19:45 1011 29.85 841 24.83 2.6 36.7 31 -12.8 8.9
19:50 1011 29.85 841 24.83 2.9 37.2 29 -13.4 7.9
19:55 1011 29.85 841 24.83 3.8 38.9 30 -12.4 9.7
20:00 1011 29.85 841 24.83 3.7 38.7 31 -11.8 10.7
20:05 1011 29.85 841 24.83 3.2 37.8 32 -12 10.3
20:10 1011 29.85 840 24.81 3.1 37.6 34 -11.4 11.5
20:15 1011 29.85 840 24.81 2.8 37 33 -12.1 10.3
20:20 1011 29.85 840 24.81 3.5 38.2 29 -13 8.6
20:25 1011 29.85 840 24.81 4 39.2 30 -12.3 9.9
20:30 1011 29.85 840 24.81 4.2 39.6 28 -12.6 9.4
20:35 1011 29.85 840 24.81 4.6 40.3 28 -12.3 9.9
20:40 1011 29.85 840 24.81 4.6 40.3 31 -11.1 12
20:45 1011 29.85 840 24.81 3.9 39.1 32 -11.4 11.5
20:50 1011 29.85 840 24.81 4 39.2 30 -12.2 10
20:55 1011 29.85 840 24.81 4.1 39.4 32 -11.3 11.6
21:00 1011 29.85 840 24.81 3.9 39.1 32 -11.4 11.4
21:05 1011 29.85 840 24.81 3.8 38.8 33 -10.9 12.3
21:10 1011 29.85 840 24.81 3.8 38.8 34 -10.8 12.6
21:15 1011 29.85 840 24.81 4 39.1 33 -10.8 12.6
21:20 1011 29.85 840 24.81 4.2 39.5 32 -11.2 11.9
21:25 1011 29.85 840 24.81 4.7 40.4 32 -10.8 12.5
21:30 1011 29.85 840 24.81 5.1 41.1 30 -11 12.3
21:35 1011 29.85 840 24.81 5.1 41.2 28 -12.1 10.2
21:40 1011 29.85 840 24.81 5.8 42.4 27 -12 10.4
21:45 1011 29.85 840 24.81 6.2 43.1 27 -11.5 11.2
21:50 1010 29.83 840 24.81 6 42.8 28 -11.2 11.8
21:55 1010 29.83 840 24.81 6 42.8 26 -12 10.4
22:00 1010 29.83 840 24.81 6.4 43.6 26 -11.6 11.1
22:05 1010 29.83 840 24.81 7 44.6 21 -13.9 6.9
22:10 1010 29.83 840 24.81 7.8 46.1 20 -13.6 7.6
22:15 1010 29.83 839 24.78 8.1 46.5 19 -14.1 6.6
22:20 1010 29.83 839 24.78 8.1 46.6 21 -12.8 8.9
22:25 1010 29.83 839 24.78 7.6 45.7 23 -12.5 9.5
22:30 1010 29.83 839 24.78 7.4 45.2 22 -13.2 8.3
22:35 1010 29.83 839 24.78 7.5 45.6 21 -13.6 7.6
22:40 1010 29.83 840 24.81 7.7 45.8 23 -12.2 10.1
22:45 1010 29.83 840 24.81 7.2 44.9 24 -12.3 9.8
22:50 1010 29.83 840 24.81 6.7 44.1 24 -12.3 9.9
22:55 1010 29.83 839 24.78 6.9 44.4 22 -13.5 7.6
23:00 1010 29.83 839 24.78 7.4 45.3 21 -13.8 7.2
23:05 1010 29.83 839 24.78 7.7 45.9 21 -13.3 8
23:10 1010 29.83 839 24.78 7.5 45.6 21 -13.4 7.9
23:15 1010 29.83 839 24.78 7.5 45.4 21 -13.5 7.7
23:20 1010 29.83 839 24.78 7.2 45 23 -12.4 9.7
23:25 1010 29.83 839 24.78 6.7 44.1 24 -12.5 9.5
23:30 1010 29.83 839 24.78 6.6 44 22 -13.4 7.8
23:35 1010 29.83 839 24.78 7 44.7 23 -12.7 9.1
23:40 1010 29.83 839 24.78 6.9 44.5 22 -13.5 7.6
23:45 1010 29.83 839 24.78 7.3 45.1 22 -13.2 8.2
23:50 1010 29.83 839 24.78 7.2 45 23 -12.7 9.2
23:55 1010 29.83 839 24.78 7.2 45 21 -13.5 7.6
24:00 1010 29.83 839 24.78 7.4 45.3 22 -12.9 8.7